Time;durP1;ratioP1;P1;durP2;ratioP2;P2;SDS_P1;SDS_P2;PMS_P1;PMS_P2;Temp;Humidity;BMP_temperature;BMP_pressure;BME280_temperature;BME280_humidity;BME280_pressure;Samples;Min_cycle;Max_cycle;Signal;HPM_P1;HPM_P2
2021/06/24 00:01:40;;;;;;;5.50;5.18;;;;;;;;;;5053849;28;20219;-80
2021/06/24 00:04:08;;;;;;;6.18;5.55;;;;;;;;;;5051735;28;20274;-80
2021/06/24 00:06:34;;;;;;;7.32;5.82;;;;;;;;;;5053438;28;20603;-80
2021/06/24 00:09:01;;;;;;;5.97;5.38;;;;;;;;;;5052252;28;20191;-81
2021/06/24 00:11:28;;;;;;;5.95;5.45;;;;;;;;;;5053446;28;20239;-80
2021/06/24 00:13:54;;;;;;;7.15;5.45;;;;;;;;;;5053426;28;20245;-80
2021/06/24 00:16:21;;;;;;;5.88;5.38;;;;;;;;;;5051812;28;20257;-80
2021/06/24 00:18:48;;;;;;;6.97;5.63;;;;;;;;;;5053623;28;20218;-80
2021/06/24 00:21:16;;;;;;;6.35;5.50;;;;;;;;;;5053204;28;20207;-80
2021/06/24 00:23:42;;;;;;;7.82;5.55;;;;;;;;;;5051937;28;20203;-80
2021/06/24 00:26:09;;;;;;;5.90;5.47;;;;;;;;;;5053108;28;20266;-81
2021/06/24 00:28:36;;;;;;;9.05;6.00;;;;;;;;;;5051997;28;20651;-81
2021/06/24 00:31:03;;;;;;;7.63;5.78;;;;;;;;;;5051768;28;20199;-81
2021/06/24 00:33:30;;;;;;;7.38;5.60;;;;;;;;;;5052342;28;20199;-81
2021/06/24 00:35:58;;;;;;;7.78;5.80;;;;;;;;;;5051954;28;20258;-80
2021/06/24 00:38:26;;;;;;;5.75;5.10;;;;;;;;;;5053262;28;20246;-81
2021/06/24 00:40:53;;;;;;;5.37;4.90;;;;;;;;;;5051641;28;20206;-80
2021/06/24 00:43:20;;;;;;;6.53;5.38;;;;;;;;;;5052916;28;20211;-80
2021/06/24 00:45:47;;;;;;;10.27;5.70;;;;;;;;;;5052641;28;20575;-80
2021/06/24 00:48:14;;;;;;;6.00;5.50;;;;;;;;;;5052661;28;20245;-80
2021/06/24 00:50:42;;;;;;;6.10;5.50;;;;;;;;;;5051146;28;20211;-81
2021/06/24 00:53:09;;;;;;;10.05;6.05;;;;;;;;;;5051230;28;20207;-80
2021/06/24 00:55:43;;;;;;;5.47;5.05;;;;;;;;;;5051916;28;20207;-80
2021/06/24 00:58:10;;;;;;;6.53;5.75;;;;;;;;;;5051462;28;20203;-80
2021/06/24 01:00:37;;;;;;;6.93;5.97;;;;;;;;;;5053150;28;20175;-80
2021/06/24 01:03:04;;;;;;;6.75;5.40;;;;;;;;;;5051528;28;20648;-80
2021/06/24 01:05:31;;;;;;;8.38;5.57;;;;;;;;;;5051120;28;20235;-80
2021/06/24 01:07:59;;;;;;;9.68;5.43;;;;;;;;;;5053132;28;20318;-81
2021/06/24 01:10:25;;;;;;;6.10;5.50;;;;;;;;;;5053053;28;20203;-80
2021/06/24 01:12:54;;;;;;;6.95;5.20;;;;;;;;;;5052941;28;20215;-81
2021/06/24 01:15:21;;;;;;;5.95;5.53;;;;;;;;;;5051753;28;20195;-80
2021/06/24 01:17:47;;;;;;;6.20;5.63;;;;;;;;;;5052755;28;20187;-81
2021/06/24 01:20:16;;;;;;;11.70;6.53;;;;;;;;;;5051581;28;20225;-80
2021/06/24 01:22:45;;;;;;;5.43;5.00;;;;;;;;;;5052429;28;20207;-81
2021/06/24 01:25:13;;;;;;;7.80;6.20;;;;;;;;;;5051020;28;20230;-80
2021/06/24 01:27:40;;;;;;;8.37;6.10;;;;;;;;;;5050811;28;20273;-80
2021/06/24 01:30:08;;;;;;;9.65;6.80;;;;;;;;;;5052461;28;20222;-80
2021/06/24 01:32:35;;;;;;;7.63;6.33;;;;;;;;;;5052833;28;20648;-80
2021/06/24 01:35:02;;;;;;;6.40;5.87;;;;;;;;;;5052628;28;20191;-80
2021/06/24 01:37:28;;;;;;;6.27;4.80;;;;;;;;;;5052672;28;20167;-80
2021/06/24 01:39:55;;;;;;;3.87;3.50;;;;;;;;;;5051392;28;20249;-80
2021/06/24 01:42:23;;;;;;;3.33;2.90;;;;;;;;;;5052634;28;20230;-80
2021/06/24 01:44:50;;;;;;;3.23;3.03;;;;;;;;;;5056613;28;20199;-80
2021/06/24 01:47:17;;;;;;;3.00;2.80;;;;;;;;;;5054809;28;20251;-80
2021/06/24 01:49:43;;;;;;;2.70;2.60;;;;;;;;;;5055120;28;20199;-80
2021/06/24 01:52:10;;;;;;;5.10;2.10;;;;;;;;;;5056200;28;20206;-81
2021/06/24 01:54:36;;;;;;;2.00;1.90;;;;;;;;;;5054819;28;20719;-81
2021/06/24 01:57:03;;;;;;;2.03;1.90;;;;;;;;;;5054866;28;20203;-80
2021/06/24 01:59:32;;;;;;;2.43;2.23;;;;;;;;;;5054554;28;20233;-80
2021/06/24 02:01:59;;;;;;;4.17;2.50;;;;;;;;;;5054730;28;20203;-80
2021/06/24 02:04:28;;;;;;;4.47;2.97;;;;;;;;;;5055657;28;20254;-78
2021/06/24 02:06:55;;;;;;;8.60;3.20;;;;;;;;;;5054415;28;20250;-78
2021/06/24 02:09:22;;;;;;;4.00;3.20;;;;;;;;;;5054366;28;20269;-78
2021/06/24 02:11:49;;;;;;;8.90;3.00;;;;;;;;;;5055732;28;20245;-78
2021/06/24 02:14:15;;;;;;;5.60;2.27;;;;;;;;;;5055586;28;20211;-79
2021/06/24 02:16:43;;;;;;;5.20;2.83;;;;;;;;;;5054320;28;20215;-78
2021/06/24 02:19:10;;;;;;;7.60;3.30;;;;;;;;;;5055829;28;20239;-78
2021/06/24 02:21:36;;;;;;;9.97;3.70;;;;;;;;;;5054049;28;20621;-78
2021/06/24 02:24:03;;;;;;;9.73;3.13;;;;;;;;;;5054270;28;20203;-78
2021/06/24 02:26:30;;;;;;;4.07;2.57;;;;;;;;;;5055223;28;20345;-79
2021/06/24 02:28:56;;;;;;;5.00;3.00;;;;;;;;;;5055854;28;20179;-79
2021/06/24 02:31:24;;;;;;;4.87;2.90;;;;;;;;;;5055254;28;20238;-79
2021/06/24 02:33:52;;;;;;;9.03;2.90;;;;;;;;;;5055378;28;20258;-79
2021/06/24 02:36:18;;;;;;;7.47;3.67;;;;;;;;;;5055119;28;20239;-79
2021/06/24 02:38:45;;;;;;;8.83;4.07;;;;;;;;;;5053455;28;20667;-79
2021/06/24 02:41:12;;;;;;;15.90;4.10;;;;;;;;;;5055280;28;20240;-79
2021/06/24 02:43:38;;;;;;;15.60;4.37;;;;;;;;;;5054174;28;20210;-79
2021/06/24 02:46:05;;;;;;;4.27;3.40;;;;;;;;;;5055390;28;20211;-80
2021/06/24 02:48:32;;;;;;;4.93;3.43;;;;;;;;;;5055127;28;20251;-80
2021/06/24 02:51:00;;;;;;;5.43;3.30;;;;;;;;;;5053683;28;20191;-79
2021/06/24 02:53:26;;;;;;;4.57;3.10;;;;;;;;;;5054919;28;20851;-80
2021/06/24 02:55:53;;;;;;;4.70;3.40;;;;;;;;;;5055135;28;20218;-79
2021/06/24 02:58:20;;;;;;;8.30;3.70;;;;;;;;;;5053725;28;20201;-80
2021/06/24 03:00:46;;;;;;;3.73;3.30;;;;;;;;;;5054892;28;20988;-79
2021/06/24 03:03:13;;;;;;;5.57;3.80;;;;;;;;;;5054788;28;20635;-79
2021/06/24 03:05:40;;;;;;;5.27;4.30;;;;;;;;;;5054604;28;20284;-79
2021/06/24 03:08:07;;;;;;;7.80;4.20;;;;;;;;;;5052688;28;20223;-78
2021/06/24 03:10:35;;;;;;;8.07;4.50;;;;;;;;;;5054145;28;20666;-79
2021/06/24 03:13:02;;;;;;;7.70;4.53;;;;;;;;;;5052451;28;20252;-79
2021/06/24 03:15:32;;;;;;;11.97;4.87;;;;;;;;;;5053811;28;20242;-79
2021/06/24 03:17:58;;;;;;;3.57;3.10;;;;;;;;;;5052557;28;20270;-79
2021/06/24 03:20:28;;;;;;;5.37;2.37;;;;;;;;;;5052172;28;20276;-80
2021/06/24 03:22:57;;;;;;;2.30;2.10;;;;;;;;;;5052281;28;20289;-80
2021/06/24 03:25:26;;;;;;;2.00;1.90;;;;;;;;;;5053509;28;20176;-80
2021/06/24 03:27:53;;;;;;;1.80;1.70;;;;;;;;;;5052148;28;20258;-80
2021/06/24 03:30:20;;;;;;;3.03;1.57;;;;;;;;;;5053624;28;20227;-80
2021/06/24 03:32:47;;;;;;;2.27;1.60;;;;;;;;;;5053601;28;20237;-80
2021/06/24 03:35:14;;;;;;;1.60;1.50;;;;;;;;;;5051885;28;20660;-79
2021/06/24 03:37:40;;;;;;;5.87;1.80;;;;;;;;;;5053678;28;20234;-79
2021/06/24 03:40:08;;;;;;;1.83;1.70;;;;;;;;;;5053566;28;20180;-79
2021/06/24 03:42:36;;;;;;;3.17;1.70;;;;;;;;;;5053408;28;20226;-79
2021/06/24 03:45:03;;;;;;;2.20;1.90;;;;;;;;;;5053317;28;20239;-78
2021/06/24 03:47:29;;;;;;;7.17;1.83;;;;;;;;;;5053485;28;20687;-78
2021/06/24 03:49:56;;;;;;;1.97;1.87;;;;;;;;;;5053325;28;20679;-79
2021/06/24 03:52:23;;;;;;;2.17;1.80;;;;;;;;;;5051944;28;20228;-79
2021/06/24 03:54:49;;;;;;;2.87;1.93;;;;;;;;;;5053084;28;20235;-79
2021/06/24 03:57:16;;;;;;;2.00;1.80;;;;;;;;;;5052793;28;20243;-79
2021/06/24 03:59:44;;;;;;;2.80;2.07;;;;;;;;;;5051769;28;20567;-79
2021/06/24 04:02:11;;;;;;;2.27;2.17;;;;;;;;;;5051577;28;20231;-79
2021/06/24 04:04:37;;;;;;;3.03;2.30;;;;;;;;;;5052092;28;20254;-79
2021/06/24 04:07:04;;;;;;;2.37;2.20;;;;;;;;;;5051433;28;20301;-79
2021/06/24 04:09:31;;;;;;;3.27;2.03;;;;;;;;;;5051596;28;20204;-79
2021/06/24 04:11:57;;;;;;;2.67;1.90;;;;;;;;;;5052770;28;20207;-79
2021/06/24 04:14:24;;;;;;;2.37;2.20;;;;;;;;;;5051364;28;20206;-79
2021/06/24 04:16:52;;;;;;;2.07;1.77;;;;;;;;;;5051539;28;20236;-79
2021/06/24 04:19:20;;;;;;;3.20;2.10;;;;;;;;;;5052621;28;20674;-79
2021/06/24 04:21:47;;;;;;;2.40;2.20;;;;;;;;;;5052806;28;20238;-78
2021/06/24 04:24:13;;;;;;;2.03;1.93;;;;;;;;;;5052556;28;20227;-79
2021/06/24 04:26:40;;;;;;;2.40;2.20;;;;;;;;;;5050859;28;20262;-78
2021/06/24 04:29:07;;;;;;;2.03;1.90;;;;;;;;;;5052384;28;20594;-78
2021/06/24 04:31:33;;;;;;;2.00;1.90;;;;;;;;;;5052942;28;20234;-79
2021/06/24 04:34:02;;;;;;;2.03;1.93;;;;;;;;;;5051229;28;20288;-79
2021/06/24 04:36:29;;;;;;;2.10;2.00;;;;;;;;;;5052149;28;20239;-78
2021/06/24 04:38:55;;;;;;;1.97;1.87;;;;;;;;;;5052546;28;20203;-79
2021/06/24 04:41:22;;;;;;;2.03;1.93;;;;;;;;;;5051144;28;20222;-79
2021/06/24 04:43:48;;;;;;;1.93;1.83;;;;;;;;;;5052649;28;20250;-79
2021/06/24 04:46:15;;;;;;;2.13;2.03;;;;;;;;;;5052569;28;20184;-80
2021/06/24 04:48:42;;;;;;;2.50;2.40;;;;;;;;;;5052531;28;20265;-77
2021/06/24 04:51:10;;;;;;;2.70;2.50;;;;;;;;;;5051050;28;20187;-78
2021/06/24 04:53:37;;;;;;;3.20;3.00;;;;;;;;;;5052414;28;20234;-77
2021/06/24 04:56:03;;;;;;;4.60;3.10;;;;;;;;;;5052274;28;20624;-78
2021/06/24 04:58:30;;;;;;;3.60;3.40;;;;;;;;;;5052411;28;20235;-77
2021/06/24 05:00:58;;;;;;;4.77;3.73;;;;;;;;;;5052005;28;20258;-78
2021/06/24 05:03:24;;;;;;;4.57;4.17;;;;;;;;;;5050958;28;20195;-80
2021/06/24 05:05:51;;;;;;;5.20;4.80;;;;;;;;;;5052182;28;20668;-78
2021/06/24 05:08:21;;;;;;;7.57;6.73;;;;;;;;;;5050438;28;20243;-77
2021/06/24 05:10:48;;;;;;;7.90;7.27;;;;;;;;;;5043918;28;20232;-77
2021/06/24 05:13:15;;;;;;;7.90;7.30;;;;;;;;;;5031080;28;20234;-77
2021/06/24 05:15:43;;;;;;;8.40;7.70;;;;;;;;;;5046943;28;20238;-78
2021/06/24 05:18:10;;;;;;;9.33;8.37;;;;;;;;;;5054715;28;20215;-78
2021/06/24 05:20:37;;;;;;;10.30;9.30;;;;;;;;;;5054883;28;20195;-77
2021/06/24 05:23:04;;;;;;;10.87;9.90;;;;;;;;;;5054641;28;20249;-79
2021/06/24 05:25:32;;;;;;;11.63;10.53;;;;;;;;;;5055870;28;20211;-79
2021/06/24 05:27:59;;;;;;;11.60;10.70;;;;;;;;;;5053792;28;20243;-80
2021/06/24 05:30:26;;;;;;;11.60;10.60;;;;;;;;;;5055596;28;20235;-80
2021/06/24 05:32:52;;;;;;;13.10;11.87;;;;;;;;;;5054779;28;20261;-80
2021/06/24 05:35:19;;;;;;;13.40;12.20;;;;;;;;;;5055915;28;20258;-81
2021/06/24 05:37:45;;;;;;;13.53;12.13;;;;;;;;;;5070491;28;20290;-80
2021/06/24 05:40:12;;;;;;;12.53;11.43;;;;;;;;;;5070960;28;20222;-79
2021/06/24 05:42:40;;;;;;;13.00;11.90;;;;;;;;;;5055410;28;20211;-80
2021/06/24 05:45:07;;;;;;;13.57;12.17;;;;;;;;;;5053718;28;20682;-81
2021/06/24 05:47:35;;;;;;;16.37;13.10;;;;;;;;;;5054340;28;20235;-80
2021/06/24 05:50:01;;;;;;;15.27;13.70;;;;;;;;;;5055747;28;20256;-80
2021/06/24 05:52:28;;;;;;;14.40;13.00;;;;;;;;;;5070712;28;20249;-80
2021/06/24 05:54:54;;;;;;;16.53;14.93;;;;;;;;;;5053947;28;20196;-80
2021/06/24 05:57:21;;;;;;;16.23;14.73;;;;;;;;;;5070484;28;20207;-80
2021/06/24 05:59:49;;;;;;;15.40;13.93;;;;;;;;;;5070684;28;20219;-80
2021/06/24 06:02:16;;;;;;;16.03;14.53;;;;;;;;;;5055062;28;20215;-81
2021/06/24 06:04:42;;;;;;;15.50;14.00;;;;;;;;;;5055124;28;20753;-80
2021/06/24 06:07:09;;;;;;;15.27;13.90;;;;;;;;;;5055277;28;20726;-80
2021/06/24 06:09:36;;;;;;;15.67;14.27;;;;;;;;;;5070343;28;20508;-80
2021/06/24 06:12:04;;;;;;;16.63;14.93;;;;;;;;;;5055315;28;20706;-80
2021/06/24 06:14:30;;;;;;;16.20;14.67;;;;;;;;;;5053709;28;20187;-81
2021/06/24 06:16:58;;;;;;;17.50;15.00;;;;;;;;;;5053486;28;20253;-80
2021/06/24 06:19:25;;;;;;;17.10;15.40;;;;;;;;;;5054849;28;20211;-81
2021/06/24 06:21:52;;;;;;;17.90;15.50;;;;;;;;;;5053411;28;20199;-80
2021/06/24 06:24:19;;;;;;;15.17;13.67;;;;;;;;;;5070294;28;20668;-80
2021/06/24 06:26:46;;;;;;;15.77;14.07;;;;;;;;;;5054787;28;20620;-80
2021/06/24 06:29:13;;;;;;;15.63;14.03;;;;;;;;;;5069008;28;20247;-81
2021/06/24 06:31:40;;;;;;;14.60;13.30;;;;;;;;;;5053280;28;20238;-80
2021/06/24 06:34:08;;;;;;;14.67;13.37;;;;;;;;;;5052615;28;20544;-80
2021/06/24 06:36:35;;;;;;;14.23;12.73;;;;;;;;;;5054567;28;20611;-81
2021/06/24 06:39:02;;;;;;;14.00;12.70;;;;;;;;;;5053145;28;20597;-80
2021/06/24 06:41:28;;;;;;;15.40;13.80;;;;;;;;;;5054450;28;20207;-81
2021/06/24 06:43:55;;;;;;;15.60;14.07;;;;;;;;;;5069548;28;20733;-80
2021/06/24 06:46:22;;;;;;;14.80;13.23;;;;;;;;;;5053202;28;20192;-80
2021/06/24 06:48:48;;;;;;;16.33;14.33;;;;;;;;;;5053059;28;20297;-80
2021/06/24 06:51:18;;;;;;;15.50;13.97;;;;;;;;;;5054012;28;20204;-80
2021/06/24 06:53:44;;;;;;;14.17;12.67;;;;;;;;;;5052881;28;20213;-81
2021/06/24 06:56:12;;;;;;;16.53;12.67;;;;;;;;;;5054247;28;20239;-80
2021/06/24 06:58:39;;;;;;;14.77;13.27;;;;;;;;;;5053039;28;20200;-80
2021/06/24 07:01:05;;;;;;;13.97;12.53;;;;;;;;;;5052789;28;20187;-81
2021/06/24 07:03:32;;;;;;;15.50;13.87;;;;;;;;;;5052739;28;20207;-80
2021/06/24 07:05:59;;;;;;;15.50;13.90;;;;;;;;;;5053571;28;20266;-81
2021/06/24 07:08:26;;;;;;;14.40;13.10;;;;;;;;;;5053823;28;20214;-80
2021/06/24 07:10:53;;;;;;;14.83;13.43;;;;;;;;;;5054192;28;20246;-81
2021/06/24 07:13:20;;;;;;;14.60;13.30;;;;;;;;;;5068854;28;20207;-80
2021/06/24 07:15:47;;;;;;;14.67;12.93;;;;;;;;;;5069073;28;20596;-81
2021/06/24 07:18:13;;;;;;;13.97;12.60;;;;;;;;;;5053877;28;20585;-80
2021/06/24 07:20:42;;;;;;;15.13;13.50;;;;;;;;;;5052344;28;20195;-80
2021/06/24 07:23:08;;;;;;;14.87;13.47;;;;;;;;;;5052187;28;20211;-80
2021/06/24 07:25:36;;;;;;;14.80;13.43;;;;;;;;;;5053680;28;20612;-80
2021/06/24 07:28:03;;;;;;;15.00;12.60;;;;;;;;;;5052123;28;20207;-81
2021/06/24 07:30:30;;;;;;;13.87;12.57;;;;;;;;;;5052237;28;20305;-80
2021/06/24 07:32:57;;;;;;;14.20;12.77;;;;;;;;;;5052130;28;20226;-81
2021/06/24 07:35:23;;;;;;;14.40;13.10;;;;;;;;;;5051956;28;20262;-81
2021/06/24 07:37:50;;;;;;;16.07;13.27;;;;;;;;;;5052133;28;20196;-80
2021/06/24 07:40:17;;;;;;;14.33;13.03;;;;;;;;;;5052440;28;20239;-80
2021/06/24 07:42:45;;;;;;;15.87;13.67;;;;;;;;;;5052062;28;20827;-79
2021/06/24 07:45:12;;;;;;;14.70;13.33;;;;;;;;;;5053270;28;20211;-79
2021/06/24 07:47:39;;;;;;;14.50;12.97;;;;;;;;;;5051837;28;20245;-79
2021/06/24 07:50:06;;;;;;;15.13;13.53;;;;;;;;;;5053188;28;20254;-79
2021/06/24 07:52:33;;;;;;;15.17;13.87;;;;;;;;;;5051924;28;20237;-81
2021/06/24 07:54:59;;;;;;;18.13;13.90;;;;;;;;;;5051708;28;20218;-80
2021/06/24 07:57:28;;;;;;;15.97;14.27;;;;;;;;;;5052982;28;20211;-80
2021/06/24 07:59:56;;;;;;;15.73;13.60;;;;;;;;;;5051780;28;20191;-80
2021/06/24 08:02:23;;;;;;;15.27;13.67;;;;;;;;;;5051672;28;20207;-80
2021/06/24 08:04:49;;;;;;;14.57;13.17;;;;;;;;;;5052601;28;20258;-80
2021/06/24 08:07:16;;;;;;;15.13;13.73;;;;;;;;;;5052712;28;20203;-78
2021/06/24 08:09:43;;;;;;;15.37;13.87;;;;;;;;;;5051490;28;20247;-81
2021/06/24 08:12:10;;;;;;;16.50;13.83;;;;;;;;;;5052780;28;20207;-79
2021/06/24 08:14:36;;;;;;;15.87;13.80;;;;;;;;;;5052692;28;20235;-79
2021/06/24 08:17:04;;;;;;;14.93;13.40;;;;;;;;;;5052700;28;20690;-79
2021/06/24 08:19:31;;;;;;;14.07;12.80;;;;;;;;;;5051547;28;20584;-78
2021/06/24 08:21:59;;;;;;;14.63;13.33;;;;;;;;;;5051086;28;20207;-79
2021/06/24 08:24:26;;;;;;;16.00;14.53;;;;;;;;;;5051249;28;20214;-79
2021/06/24 08:26:53;;;;;;;17.67;13.70;;;;;;;;;;5067764;28;20227;-79
2021/06/24 08:29:19;;;;;;;13.80;12.47;;;;;;;;;;5052408;28;20657;-81
2021/06/24 08:31:46;;;;;;;15.17;13.57;;;;;;;;;;5052286;28;21021;-79
2021/06/24 08:34:15;;;;;;;14.87;13.47;;;;;;;;;;5051314;28;20656;-79
2021/06/24 08:36:41;;;;;;;14.97;13.67;;;;;;;;;;5051359;28;20250;-79
2021/06/24 08:39:08;;;;;;;15.53;13.93;;;;;;;;;;5052601;28;20211;-79
2021/06/24 08:41:36;;;;;;;13.97;12.57;;;;;;;;;;5051289;28;20203;-79
2021/06/24 08:44:02;;;;;;;14.93;13.50;;;;;;;;;;5051130;28;20260;-79
2021/06/24 08:46:29;;;;;;;13.73;12.57;;;;;;;;;;5051120;28;20206;-79
2021/06/24 08:48:57;;;;;;;14.27;12.87;;;;;;;;;;5051160;28;20203;-79
2021/06/24 08:51:25;;;;;;;15.50;14.00;;;;;;;;;;5052105;28;20258;-80
2021/06/24 08:53:52;;;;;;;15.57;14.17;;;;;;;;;;5051563;28;20200;-80
2021/06/24 08:56:19;;;;;;;14.67;13.17;;;;;;;;;;5050973;28;20627;-79
2021/06/24 08:58:47;;;;;;;15.30;13.77;;;;;;;;;;5052112;28;20225;-78
2021/06/24 09:01:14;;;;;;;15.33;13.83;;;;;;;;;;5070365;28;20594;-80
2021/06/24 09:03:40;;;;;;;16.07;14.37;;;;;;;;;;5054630;28;20621;-81
2021/06/24 09:06:08;;;;;;;15.07;13.73;;;;;;;;;;5052432;28;20227;-79
2021/06/24 09:08:37;;;;;;;15.93;14.00;;;;;;;;;;5050869;28;20688;-80
2021/06/24 09:11:08;;;;;;;14.77;13.27;;;;;;;;;;5052111;28;20254;-81
2021/06/24 09:13:34;;;;;;;16.67;14.50;;;;;;;;;;5050784;28;20265;-80
2021/06/24 09:16:04;;;;;;;16.17;14.70;;;;;;;;;;5050922;28;20230;-80
2021/06/24 09:18:31;;;;;;;16.47;14.97;;;;;;;;;;5050864;28;20642;-80
2021/06/24 09:20:58;;;;;;;15.77;14.47;;;;;;;;;;5050600;28;20223;-80
2021/06/24 09:23:25;;;;;;;14.90;13.60;;;;;;;;;;5051820;28;20239;-80
2021/06/24 09:26:07;;;;;;;15.40;14.00;;;;;;;;;;5050502;28;20223;-80
2021/06/24 09:28:38;;;;;;;17.57;15.73;;;;;;;;;;5051956;28;20235;-80
2021/06/24 09:31:04;;;;;;;17.43;15.47;;;;;;;;;;5051776;28;20258;-80
2021/06/24 09:33:38;;;;;;;16.67;15.20;;;;;;;;;;5051688;28;20242;-80
2021/06/24 09:36:05;;;;;;;17.40;15.80;;;;;;;;;;5050209;28;20199;-80
2021/06/24 09:38:41;;;;;;;17.10;15.50;;;;;;;;;;5051855;28;20226;-79
2021/06/24 09:41:14;;;;;;;16.13;14.60;;;;;;;;;;5050482;28;20652;-80
2021/06/24 09:43:42;;;;;;;16.87;15.53;;;;;;;;;;5050525;28;20207;-80
2021/06/24 09:46:12;;;;;;;17.07;15.57;;;;;;;;;;5051654;28;20223;-80
2021/06/24 09:48:39;;;;;;;16.07;14.57;;;;;;;;;;5051870;28;20212;-80
2021/06/24 09:51:07;;;;;;;16.37;14.63;;;;;;;;;;5050498;28;20223;-80
2021/06/24 09:53:33;;;;;;;18.77;17.00;;;;;;;;;;5050057;28;20563;-79
2021/06/24 09:56:15;;;;;;;16.57;15.07;;;;;;;;;;5050199;28;20203;-80
2021/06/24 09:58:48;;;;;;;16.63;15.00;;;;;;;;;;5051673;28;20242;-80
2021/06/24 10:01:25;;;;;;;18.53;16.77;;;;;;;;;;5051514;28;20199;-80
2021/06/24 10:03:52;;;;;;;17.83;16.30;;;;;;;;;;5051808;28;20737;-79
2021/06/24 10:06:19;;;;;;;18.63;16.73;;;;;;;;;;5053654;28;20262;-80
2021/06/24 10:08:45;;;;;;;18.87;17.00;;;;;;;;;;5053654;28;20219;-80
2021/06/24 10:11:12;;;;;;;17.97;16.37;;;;;;;;;;5054785;28;20603;-80
2021/06/24 10:13:39;;;;;;;17.13;15.60;;;;;;;;;;5053543;28;20191;-79
2021/06/24 10:16:07;;;;;;;18.13;16.40;;;;;;;;;;5054962;28;20242;-79
2021/06/24 10:18:35;;;;;;;17.30;15.80;;;;;;;;;;5053740;28;20219;-79
2021/06/24 10:21:02;;;;;;;17.20;15.50;;;;;;;;;;5053389;28;20672;-80
2021/06/24 10:23:29;;;;;;;16.30;14.70;;;;;;;;;;5053404;28;20203;-79
2021/06/24 10:25:57;;;;;;;17.73;16.07;;;;;;;;;;5053289;28;20317;-79
2021/06/24 10:28:24;;;;;;;17.27;15.57;;;;;;;;;;5054672;28;20196;-79
2021/06/24 10:30:50;;;;;;;15.73;14.23;;;;;;;;;;5054673;28;20262;-79
2021/06/24 10:33:18;;;;;;;15.80;14.37;;;;;;;;;;5053143;28;20663;-80
2021/06/24 10:35:48;;;;;;;15.23;13.73;;;;;;;;;;5054770;28;20258;-80
2021/06/24 10:38:15;;;;;;;17.87;15.43;;;;;;;;;;5055363;28;20207;-80
2021/06/24 10:40:42;;;;;;;16.03;14.40;;;;;;;;;;5054918;28;20675;-79
2021/06/24 10:43:09;;;;;;;16.53;14.93;;;;;;;;;;5054708;28;20238;-79
2021/06/24 10:45:37;;;;;;;17.57;15.77;;;;;;;;;;5053174;28;20547;-78
2021/06/24 10:48:18;;;;;;;17.60;15.80;;;;;;;;;;5054502;28;20207;-78
2021/06/24 10:50:56;;;;;;;16.07;14.53;;;;;;;;;;5054255;28;20251;-77
2021/06/24 10:53:42;;;;;;;17.07;15.30;;;;;;;;;;5054239;28;20242;-78
2021/06/24 10:56:28;;;;;;;17.07;14.63;;;;;;;;;;5054194;28;20215;-78
2021/06/24 10:58:55;;;;;;;15.33;14.00;;;;;;;;;;5054190;28;20183;-78
2021/06/24 11:01:39;;;;;;;16.10;14.60;;;;;;;;;;5052844;28;20805;-78
2021/06/24 11:04:07;;;;;;;16.43;14.73;;;;;;;;;;5053608;28;20215;-78
2021/06/24 11:06:39;;;;;;;15.40;14.00;;;;;;;;;;5052833;28;21069;-78
2021/06/24 11:09:12;;;;;;;16.07;14.57;;;;;;;;;;5052922;28;20660;-78
2021/06/24 11:11:41;;;;;;;13.95;12.73;;;;;;;;;;5069208;28;20235;-77
2021/06/24 11:14:08;;;;;;;13.17;12.07;;;;;;;;;;5052052;28;20261;-78
2021/06/24 11:16:35;;;;;;;13.50;12.40;;;;;;;;;;5053797;28;20239;-77
2021/06/24 11:19:06;;;;;;;13.45;12.07;;;;;;;;;;5052183;28;20200;-78
2021/06/24 11:21:48;;;;;;;11.88;10.80;;;;;;;;;;5053736;28;20235;-78
2021/06/24 11:24:17;;;;;;;12.68;11.60;;;;;;;;;;5052460;28;20210;-77
2021/06/24 11:26:45;;;;;;;12.30;11.20;;;;;;;;;;5053437;28;20247;-77
2021/06/24 11:29:28;;;;;;;12.13;11.07;;;;;;;;;;5052092;28;20188;-78
2021/06/24 11:31:58;;;;;;;13.25;12.07;;;;;;;;;;5035229;28;20274;-78
2021/06/24 11:34:31;;;;;;;12.73;11.63;;;;;;;;;;5053460;28;20234;-78
2021/06/24 11:36:59;;;;;;;14.27;12.98;;;;;;;;;;5052325;28;20203;-79
2021/06/24 11:39:27;;;;;;;12.95;11.90;;;;;;;;;;5052160;28;20713;-79
2021/06/24 11:41:54;;;;;;;13.55;12.35;;;;;;;;;;5053158;28;20239;-77
2021/06/24 11:44:25;;;;;;;11.57;10.57;;;;;;;;;;5051506;28;20672;-79
2021/06/24 11:46:56;;;;;;;13.45;10.18;;;;;;;;;;5054239;28;20215;-79
2021/06/24 11:49:35;;;;;;;10.60;9.75;;;;;;;;;;5051717;28;20230;-78
2021/06/24 12:00:34;;;;;;;8.60;7.90;;;;;;;;;;5052813;28;20601;-78
2021/06/24 12:03:05;;;;;;;7.97;7.18;;;;;;;;;;5052972;28;20234;-78
2021/06/24 12:05:31;;;;;;;6.43;5.93;;;;;;;;;;5051138;28;20227;-78
2021/06/24 12:07:58;;;;;;;2.65;2.42;;;;;;;;;;5052513;28;20643;-78
2021/06/24 12:10:26;;;;;;;1.60;1.60;;;;;;;;;;5051036;28;20237;-78
2021/06/24 12:12:53;;;;;;;3.40;1.80;;;;;;;;;;5052602;28;20226;-78
2021/06/24 12:15:19;;;;;;;1.80;1.80;;;;;;;;;;5052917;28;20246;-78
2021/06/24 12:17:46;;;;;;;1.58;1.55;;;;;;;;;;5051422;28;20673;-77
2021/06/24 12:20:15;;;;;;;1.38;1.38;;;;;;;;;;5052473;28;20238;-77
2021/06/24 12:22:48;;;;;;;1.45;1.35;;;;;;;;;;5052672;28;20617;-77
2021/06/24 12:25:16;;;;;;;1.15;1.15;;;;;;;;;;5052067;28;20238;-77
2021/06/24 12:27:45;;;;;;;1.92;1.27;;;;;;;;;;5050023;28;20227;-78
2021/06/24 12:30:14;;;;;;;1.40;1.30;;;;;;;;;;5052003;28;20211;-77
2021/06/24 12:32:46;;;;;;;3.92;1.20;;;;;;;;;;5052175;28;20707;-77
2021/06/24 12:35:14;;;;;;;1.05;1.05;;;;;;;;;;5050544;28;20207;-77
2021/06/24 12:37:43;;;;;;;1.48;1.40;;;;;;;;;;5067504;28;20203;-78
2021/06/24 12:40:13;;;;;;;1.42;1.42;;;;;;;;;;5051103;28;20223;-78
2021/06/24 12:42:45;;;;;;;1.65;1.15;;;;;;;;;;5052421;28;20612;-78
2021/06/24 12:45:13;;;;;;;1.50;1.50;;;;;;;;;;5052129;28;20703;-78
2021/06/24 12:47:42;;;;;;;2.00;1.77;;;;;;;;;;5052402;28;20582;-78
2021/06/24 12:50:09;;;;;;;1.50;1.35;;;;;;;;;;5052995;28;20242;-78
2021/06/24 12:52:36;;;;;;;1.33;1.20;;;;;;;;;;5052169;28;20300;-78
2021/06/24 12:55:03;;;;;;;1.50;1.40;;;;;;;;;;5050949;28;20187;-77
2021/06/24 12:57:29;;;;;;;4.63;1.67;;;;;;;;;;5051708;28;20567;-78
2021/06/24 12:59:57;;;;;;;1.75;1.70;;;;;;;;;;5053168;28;20219;-77
2021/06/24 13:02:24;;;;;;;1.75;1.65;;;;;;;;;;5052101;28;20204;-78
2021/06/24 13:04:51;;;;;;;2.08;1.98;;;;;;;;;;5050643;28;20227;-78
2021/06/24 13:07:17;;;;;;;1.88;1.77;;;;;;;;;;5050833;28;20210;-78
2021/06/24 13:09:46;;;;;;;1.60;1.60;;;;;;;;;;5051198;28;20655;-78
2021/06/24 13:12:16;;;;;;;2.00;1.80;;;;;;;;;;5051624;28;20230;-78
2021/06/24 13:14:46;;;;;;;2.13;1.90;;;;;;;;;;5050575;28;20213;-78
2021/06/24 13:17:15;;;;;;;3.25;1.90;;;;;;;;;;5050556;28;20512;-78
2021/06/24 13:19:42;;;;;;;1.85;1.85;;;;;;;;;;5052073;28;20243;-77
2021/06/24 13:22:11;;;;;;;6.68;2.35;;;;;;;;;;5050316;28;20192;-78
2021/06/24 13:24:39;;;;;;;1.80;1.80;;;;;;;;;;5051867;28;20237;-77
2021/06/24 13:27:07;;;;;;;2.10;2.00;;;;;;;;;;5051608;28;20255;-77
2021/06/24 13:29:34;;;;;;;1.73;1.63;;;;;;;;;;5051912;28;20207;-78
2021/06/24 13:32:00;;;;;;;2.90;1.80;;;;;;;;;;5050606;28;20246;-78
2021/06/24 13:34:29;;;;;;;1.80;1.80;;;;;;;;;;5051947;28;20246;-77
2021/06/24 13:37:12;;;;;;;1.90;1.90;;;;;;;;;;5052462;28;20215;-78
2021/06/24 13:39:39;;;;;;;1.85;1.75;;;;;;;;;;5055032;28;20562;-78
2021/06/24 13:42:06;;;;;;;2.40;2.30;;;;;;;;;;5055410;28;20234;-78
2021/06/24 13:44:33;;;;;;;2.25;2.15;;;;;;;;;;5055756;28;20235;-78
2021/06/24 13:47:00;;;;;;;2.30;2.20;;;;;;;;;;5055425;28;20239;-78
2021/06/24 13:49:26;;;;;;;2.88;2.40;;;;;;;;;;5055723;28;20249;-77
2021/06/24 13:51:55;;;;;;;2.08;2.00;;;;;;;;;;5054220;28;20243;-78
2021/06/24 13:54:23;;;;;;;2.38;2.20;;;;;;;;;;5054435;28;20670;-78
2021/06/24 13:56:51;;;;;;;2.47;2.38;;;;;;;;;;5053699;28;20675;-77
2021/06/24 13:59:18;;;;;;;2.45;2.35;;;;;;;;;;5054990;28;20207;-77
2021/06/24 14:01:45;;;;;;;2.88;2.17;;;;;;;;;;5055784;28;20218;-78
2021/06/24 14:04:12;;;;;;;2.28;2.10;;;;;;;;;;5054909;28;20292;-78
2021/06/24 14:06:39;;;;;;;2.65;2.40;;;;;;;;;;5055268;28;20218;-78
2021/06/24 14:09:08;;;;;;;7.18;4.55;;;;;;;;;;5054610;28;20817;-78
2021/06/24 14:11:35;;;;;;;9.13;4.85;;;;;;;;;;5055010;28;20773;-77
2021/06/24 14:14:03;;;;;;;6.22;4.60;;;;;;;;;;5055040;28;20235;-77
2021/06/24 14:16:30;;;;;;;9.55;5.07;;;;;;;;;;5055086;28;20239;-77
2021/06/24 14:18:56;;;;;;;16.52;4.95;;;;;;;;;;5054841;28;20629;-77
2021/06/24 14:21:24;;;;;;;8.70;4.85;;;;;;;;;;5053267;28;20317;-76
2021/06/24 14:23:53;;;;;;;4.32;3.92;;;;;;;;;;5053657;28;20648;-77
2021/06/24 14:26:22;;;;;;;5.43;4.40;;;;;;;;;;5054619;28;20273;-77
2021/06/24 14:28:49;;;;;;;3.58;3.28;;;;;;;;;;5053537;28;20199;-77
2021/06/24 14:31:15;;;;;;;3.80;3.45;;;;;;;;;;5053098;28;20226;-77
2021/06/24 14:33:42;;;;;;;3.60;3.30;;;;;;;;;;5053246;28;20316;-77
2021/06/24 14:36:09;;;;;;;4.72;3.72;;;;;;;;;;5054706;28;20235;-77
2021/06/24 14:38:37;;;;;;;5.32;3.67;;;;;;;;;;5054714;28;20215;-77
2021/06/24 14:41:04;;;;;;;4.20;3.40;;;;;;;;;;5052925;28;20238;-77
2021/06/24 14:43:32;;;;;;;3.60;3.40;;;;;;;;;;5054303;28;20231;-77